Time;durP1;ratioP1;P1;durP2;ratioP2;P2;SDS_P1;SDS_P2;PMS_P1;PMS_P2;Temp;Humidity;BMP_temperature;BMP_pressure;BME280_temperature;BME280_humidity;BME280_pressure;Samples;Min_cycle;Max_cycle;Signal;HPM_P1;HPM_P2
2022/12/22 03:26:20;;;;;;;111.00;53.13;;;179.40;2252.80;;;;;;5033987;28;20492;-79
2022/12/22 03:28:46;;;;;;;;;;;179.40;2252.80;;;;;;5032963;28;20021;-82
2022/12/22 03:31:12;;;;;;;107.80;54.38;;;179.40;2252.80;;;;;;5032876;28;19905;-81
2022/12/22 03:33:38;;;;;;;;;;;179.30;2252.80;;;;;;5033134;28;20030;-82
2022/12/22 03:36:04;;;;;;;111.18;54.38;;;179.40;2252.80;;;;;;5033807;28;19905;-83
2022/12/22 03:38:30;;;;;;;114.68;59.33;;;179.40;2252.80;;;;;;5033582;28;20087;-81
2022/12/22 03:40:55;;;;;;;;;;;179.40;2252.80;;;;;;5033480;28;20029;-82
2022/12/22 03:49:11;;;;;;;108.35;58.10;;;179.30;2252.80;;;;;;5021471;28;20487;-82
2022/12/22 03:51:49;;;;;;;118.43;59.42;;;179.30;2252.80;;;;;;5032398;28;20057;-82
2022/12/22 03:54:25;;;;;;;108.95;58.72;;;179.30;2252.80;;;;;;5032606;28;20056;-80
2022/12/22 03:56:52;;;;;;;119.30;61.20;;;179.30;2252.80;;;;;;5032385;28;20021;-80
2022/12/22 03:59:19;;;;;;;114.25;60.30;;;179.30;2252.80;;;;;;5032307;28;20026;-83
2022/12/22 04:01:50;;;;;;;127.93;65.47;;;179.40;2252.80;;;;;;5032126;28;20061;-82
2022/12/22 04:04:18;;;;;;;120.30;61.22;;;179.40;2252.80;;;;;;5019289;28;20030;-79
2022/12/22 04:06:44;;;;;;;124.72;64.50;;;179.40;2252.80;;;;;;5032180;28;20029;-82
2022/12/22 04:09:10;;;;;;;134.90;70.10;;;179.40;2252.80;;;;;;5032244;28;20030;-80
2022/12/22 04:14:21;;;;;;;135.00;69.80;;;179.30;2252.80;;;;;;5033167;28;20080;-80
2022/12/22 04:16:47;;;;;;;146.20;75.72;;;179.20;2252.80;;;;;;5034211;28;20021;-81
2022/12/22 04:19:12;;;;;;;151.70;75.80;;;154.50;2252.80;;;;;;5036810;28;20097;-82
2022/12/22 04:21:38;;;;;;;;;;;154.50;2252.80;;;;;;5037159;28;20049;-82
2022/12/22 04:24:04;;;;;;;127.13;62.53;;;154.50;2252.80;;;;;;5035589;28;19971;-82
2022/12/22 04:26:30;;;;;;;126.45;60.50;;;154.30;2252.80;;;;;;5035558;28;20485;-79
2022/12/22 04:28:56;;;;;;;;;;;154.20;2252.80;;;;;;5035995;28;20025;-81
2022/12/22 04:31:22;;;;;;;118.45;58.08;;;154.30;2252.80;;;;;;5035516;28;19905;-82
2022/12/22 04:33:48;;;;;;;115.28;59.33;;;154.20;2252.80;;;;;;5035351;28;20034;-80
2022/12/22 04:36:15;;;;;;;;;;;154.30;2252.80;;;;;;5035878;28;20052;-82
2022/12/22 04:38:41;;;;;;;108.53;55.38;;;154.40;2252.80;;;;;;5035179;28;20451;-80
2022/12/22 04:41:07;;;;;;;;;;;154.30;2252.80;;;;;;5035405;28;20057;-81
2022/12/22 04:43:33;;;;;;;116.55;59.05;;;154.30;2252.80;;;;;;5035326;28;19940;-81
2022/12/22 04:45:58;;;;;;;;;;;154.30;2252.80;;;;;;5035358;28;20478;-83
2022/12/22 04:48:26;;;;;;;115.57;58.17;;;154.30;2252.80;;;;;;5035207;28;19905;-82
2022/12/22 04:50:57;;;;;;;110.55;55.53;;;154.30;2252.80;;;;;;5035269;28;20056;-80
2022/12/22 04:53:24;;;;;;;121.82;58.08;;;154.30;2252.80;;;;;;5034621;28;20056;-81
2022/12/22 04:55:55;;;;;;;118.28;59.17;;;154.30;2252.80;;;;;;5036558;28;20032;-81
2022/12/22 04:58:21;;;;;;;104.72;56.53;;;154.30;2252.80;;;;;;5034959;28;20025;-81
2022/12/22 05:00:46;;;;;;;;;;;154.40;2252.80;;;;;;5035470;28;20124;-81
2022/12/22 05:03:12;;;;;;;121.32;55.75;;;154.30;2252.80;;;;;;5035127;28;19905;-81
2022/12/22 05:05:38;;;;;;;;;;;154.20;2252.80;;;;;;5035210;28;20544;-80
2022/12/22 05:08:04;;;;;;;106.03;54.47;;;154.30;2252.80;;;;;;5034984;28;19906;-82
2022/12/22 05:10:30;;;;;;;104.60;54.28;;;154.20;2252.80;;;;;;5034968;28;20025;-82
2022/12/22 05:12:57;;;;;;;113.05;55.63;;;154.10;2252.80;;;;;;5034895;28;20025;-82
2022/12/22 05:15:27;;;;;;;121.53;58.67;;;154.20;2252.80;;;;;;5034666;28;20034;-81
2022/12/22 05:17:53;;;;;;;114.63;58.20;;;154.30;2252.80;;;;;;5034924;28;20102;-82
2022/12/22 05:20:18;;;;;;;;;;;154.30;2252.80;;;;;;5035210;28;20025;-82
2022/12/22 05:22:45;;;;;;;113.05;54.88;;;154.40;2252.80;;;;;;5035820;28;20038;-82
2022/12/22 05:25:10;;;;;;;104.15;53.65;;;154.30;2252.80;;;;;;5035521;28;20037;-80
2022/12/22 05:27:36;;;;;;;;;;;154.30;2252.80;;;;;;5034879;28;20040;-80
2022/12/22 05:30:03;;;;;;;119.55;55.35;;;154.10;2252.80;;;;;;5034429;28;19905;-81
2022/12/22 05:32:32;;;;;;;112.18;56.13;;;154.10;2252.80;;;;;;5034551;28;20033;-81
2022/12/22 05:34:58;;;;;;;107.97;52.75;;;154.10;2252.80;;;;;;5034073;28;20033;-81
2022/12/22 05:37:23;;;;;;;;;;;154.10;2252.80;;;;;;5034981;28;20021;-80
2022/12/22 05:39:49;;;;;;;99.78;50.78;;;154.00;2252.80;;;;;;5035211;28;19905;-81
2022/12/22 05:42:34;;;;;;;;;;;153.90;2252.80;;;;;;5021686;28;20021;-81
2022/12/22 05:45:06;;;;;;;119.40;55.65;;;153.90;2252.80;;;;;;5034094;28;19909;-81
2022/12/22 05:47:32;;;;;;;111.60;53.72;;;154.00;2252.80;;;;;;5034179;28;20049;-80
2022/12/22 05:49:58;;;;;;;105.68;52.78;;;153.90;2252.80;;;;;;5033880;28;20029;-81
2022/12/22 05:52:23;;;;;;;;;;;153.90;2252.80;;;;;;5034205;28;20405;-79
2022/12/22 05:54:49;;;;;;;103.53;52.80;;;154.10;2252.80;;;;;;5033877;28;19917;-81
2022/12/22 05:57:15;;;;;;;;;;;154.20;2252.80;;;;;;5034240;28;20027;-81
2022/12/22 05:59:40;;;;;;;125.50;56.58;;;154.20;2252.80;;;;;;5033706;28;20349;-80
2022/12/22 06:02:06;;;;;;;;;;;154.30;2252.80;;;;;;5034177;28;20052;-81
2022/12/22 06:04:32;;;;;;;121.95;57.03;;;154.30;2252.80;;;;;;5033547;28;19909;-82
2022/12/22 06:06:57;;;;;;;;;;;154.30;2252.80;;;;;;5034573;28;20117;-80
2022/12/22 06:09:23;;;;;;;131.48;60.97;;;154.30;2252.80;;;;;;5033733;28;19913;-82
2022/12/22 06:11:48;;;;;;;;;;;154.40;2252.80;;;;;;5034332;28;20113;-81
2022/12/22 06:14:14;;;;;;;139.75;64.38;;;154.30;2252.80;;;;;;5033715;28;19966;-81
2022/12/22 06:16:40;;;;;;;;;;;154.20;2252.80;;;;;;5033634;28;20036;-78
2022/12/22 06:19:05;;;;;;;110.15;54.58;;;154.20;2252.80;;;;;;5033054;28;20320;-79
2022/12/22 06:21:31;;;;;;;;;;;154.20;2252.80;;;;;;5033357;28;20022;-79
2022/12/22 06:23:57;;;;;;;111.97;53.80;;;154.30;2252.80;;;;;;5029463;28;19920;-79
2022/12/22 06:26:22;;;;;;;;;;;154.30;2252.80;;;;;;5033518;28;20482;-79
2022/12/22 06:28:48;;;;;;;107.68;54.50;;;154.30;2252.80;;;;;;5033156;28;20349;-79
2022/12/22 06:31:13;;;;;;;;;;;154.40;2252.80;;;;;;5033484;28;20025;-79
2022/12/22 06:33:39;;;;;;;112.10;57.50;;;154.50;2252.80;;;;;;5032864;28;19915;-79
2022/12/22 06:36:05;;;;;;;;;;;154.40;2252.80;;;;;;5033276;28;20022;-79
2022/12/22 06:38:31;;;;;;;122.63;55.67;;;154.40;2252.80;;;;;;5034127;28;19905;-80
2022/12/22 06:40:57;;;;;;;;;;;154.50;2252.80;;;;;;5029320;28;20033;-78
2022/12/22 06:43:23;;;;;;;101.93;53.22;;;154.50;2252.80;;;;;;5029097;28;19905;-78
2022/12/22 06:45:48;;;;;;;;;;;154.50;2252.80;;;;;;5014744;28;20125;-78
2022/12/22 06:48:14;;;;;;;120.18;57.28;;;154.40;2252.80;;;;;;5015665;28;19945;-84
2022/12/22 06:50:40;;;;;;;;;;;154.40;2252.80;;;;;;5033324;28;20029;-81
2022/12/22 06:53:07;;;;;;;129.13;59.95;;;154.50;2252.80;;;;;;5029485;28;19917;-82
2022/12/22 06:55:33;;;;;;;138.68;67.05;;;154.30;2252.80;;;;;;5019761;28;20049;-81
2022/12/22 06:57:59;;;;;;;129.82;66.80;;;154.30;2252.80;;;;;;5033733;28;20033;-79
2022/12/22 07:00:25;;;;;;;;;;;154.30;2252.80;;;;;;5033064;28;20018;-81
2022/12/22 07:02:50;;;;;;;120.07;59.20;;;154.40;2252.80;;;;;;5032351;28;19948;-83
2022/12/22 07:05:16;;;;;;;;;;;154.30;2252.80;;;;;;5029481;28;20068;-80
2022/12/22 07:07:42;;;;;;;112.00;55.63;;;154.20;2252.80;;;;;;5020754;28;20011;-81
2022/12/22 07:10:07;;;;;;;;;;;154.30;2252.80;;;;;;5018009;28;20438;-80
2022/12/22 07:12:33;;;;;;;112.22;53.05;;;154.30;2252.80;;;;;;5047137;28;20000;-80
2022/12/22 07:14:59;;;;;;;;;;;154.30;2252.80;;;;;;5018212;28;20041;-80
2022/12/22 07:17:24;;;;;;;113.85;57.92;;;154.40;2252.80;;;;;;5019563;28;20320;-82
2022/12/22 07:19:50;;;;;;;;;;;154.40;2252.80;;;;;;5023488;28;20120;-79
2022/12/22 07:22:16;;;;;;;116.00;57.38;;;154.50;2252.80;;;;;;5060216;28;19916;-80
2022/12/22 07:24:41;;;;;;;;;;;154.40;2252.80;;;;;;5025558;28;20553;-81
2022/12/22 07:27:07;;;;;;;99.30;51.63;;;154.50;2252.80;;;;;;5024544;28;19905;-80
2022/12/22 07:29:35;;;;;;;;;;;154.50;2252.80;;;;;;5019879;28;20017;-79
2022/12/22 07:32:00;;;;;;;113.75;55.97;;;154.50;2252.80;;;;;;5022485;28;19909;-80
2022/12/22 07:34:26;;;;;;;;;;;179.20;2252.80;;;;;;5022039;28;20129;-81
2022/12/22 07:36:52;;;;;;;106.00;54.20;;;179.20;2252.80;;;;;;5051746;28;19951;-81
2022/12/22 07:39:17;;;;;;;;;;;154.50;2252.80;;;;;;5025741;28;20033;-87
2022/12/22 07:44:27;;;;;;;120.05;60.75;;;179.20;2252.80;;;;;;5023547;28;20041;-80
2022/12/22 07:46:53;;;;;;;;;;;179.20;2252.80;;;;;;5013389;28;20026;-81
2022/12/22 07:52:03;;;;;;;162.85;84.60;;;179.30;2252.80;;;;;;5021737;28;20040;-81
2022/12/22 07:54:28;;;;;;;;;;;179.40;2252.80;;;;;;5022949;28;20050;-82
2022/12/22 07:56:54;;;;;;;141.25;71.55;;;179.40;2252.80;;;;;;5035517;28;20256;-80
2022/12/22 07:59:20;;;;;;;;;;;179.40;2252.80;;;;;;5027329;28;20025;-80
2022/12/22 08:01:46;;;;;;;134.20;63.55;;;179.40;2252.80;;;;;;5026068;28;19905;-78
2022/12/22 08:04:12;;;;;;;;;;;179.40;2252.80;;;;;;5027200;28;20135;-80
2022/12/22 08:06:38;;;;;;;128.17;65.17;;;179.40;2252.80;;;;;;5060812;28;19905;-80
2022/12/22 08:09:04;;;;;;;;;;;179.40;2252.80;;;;;;5027120;28;20283;-78
2022/12/22 08:11:30;;;;;;;139.23;70.20;;;179.40;2252.80;;;;;;5059482;28;19932;-80
2022/12/22 08:13:56;;;;;;;;;;;179.40;2252.80;;;;;;5024720;28;20482;-79
2022/12/22 08:16:21;;;;;;;147.23;70.78;;;179.40;2252.80;;;;;;5028677;28;19905;-82
2022/12/22 08:18:48;;;;;;;;;;;179.40;2252.80;;;;;;5021179;28;20065;-80
2022/12/22 08:21:14;;;;;;;169.70;79.80;;;179.40;2252.80;;;;;;5060248;28;19999;-80
2022/12/22 08:23:40;;;;;;;144.80;71.32;;;179.30;2252.80;;;;;;5022013;28;20037;-80
2022/12/22 08:26:25;;;;;;;;;;;179.40;2252.80;;;;;;5023536;28;20120;-78
2022/12/22 08:29:09;;;;;;;150.05;72.75;;;179.40;2252.80;;;;;;5055432;28;19951;-78
2022/12/22 08:31:35;;;;;;;131.82;69.38;;;179.50;2252.80;;;;;;5042805;28;20425;-81
2022/12/22 08:34:02;;;;;;;;;;;179.50;2252.80;;;;;;5029007;28;20455;-80
2022/12/22 08:36:30;;;;;;;141.13;71.85;;;179.60;2252.80;;;;;;5024346;28;19905;-79
2022/12/22 08:38:56;;;;;;;167.30;80.47;;;179.60;2252.80;;;;;;5029733;28;20083;-80
2022/12/22 08:41:48;;;;;;;187.77;91.45;;;179.30;2252.80;;;;;;5023246;28;20080;-82
2022/12/22 08:44:07;;;;;;;164.68;82.93;;;179.40;2252.80;;;;;;5031756;28;20022;-83
2022/12/22 08:46:33;;;;;;;;;;;179.40;2252.80;;;;;;5020318;28;20026;-81
2022/12/22 08:48:59;;;;;;;140.27;70.80;;;179.40;2252.80;;;;;;5022167;28;19973;-80
2022/12/22 08:51:24;;;;;;;;;;;179.40;2252.80;;;;;;5025736;28;20026;-80
2022/12/22 08:53:50;;;;;;;145.60;69.25;;;179.40;2252.80;;;;;;5026316;28;19925;-81
2022/12/22 08:56:15;;;;;;;;;;;179.30;2252.80;;;;;;5029742;28;20044;-81
2022/12/22 08:58:41;;;;;;;138.95;69.28;;;179.50;2252.80;;;;;;5026728;28;19928;-83
2022/12/22 09:01:07;;;;;;;;;;;179.50;2252.80;;;;;;5020268;28;20064;-81
2022/12/22 09:03:32;;;;;;;132.10;66.20;;;179.50;2252.80;;;;;;5029794;28;19928;-82
2022/12/22 09:06:01;;;;;;;;;;;179.40;2252.80;;;;;;5029436;28;20034;-82
2022/12/22 09:08:27;;;;;;;125.22;62.25;;;179.50;2252.80;;;;;;5058917;28;19910;-80
2022/12/22 09:10:52;;;;;;;;;;;179.60;2252.80;;;;;;5023475;28;20037;-81
2022/12/22 09:13:18;;;;;;;122.05;61.60;;;179.60;2252.80;;;;;;5058313;28;19913;-81
2022/12/22 09:15:44;;;;;;;;;;;179.50;2252.80;;;;;;5025860;28;20045;-81
2022/12/22 09:18:09;;;;;;;111.43;58.03;;;179.40;2252.80;;;;;;5060571;28;20004;-81
2022/12/22 09:20:35;;;;;;;;;;;179.60;2252.80;;;;;;5026475;28;20030;-81
2022/12/22 09:23:01;;;;;;;114.05;57.22;;;179.60;2252.80;;;;;;5053952;28;20353;-80
2022/12/22 09:25:26;;;;;;;;;;;179.70;2252.80;;;;;;5021539;28;20026;-81
2022/12/22 09:27:52;;;;;;;103.90;56.08;;;179.70;2252.80;;;;;;5029236;28;19960;-79
2022/12/22 09:30:18;;;;;;;;;;;179.60;2252.80;;;;;;5059312;28;20021;-81
2022/12/22 09:32:43;;;;;;;113.18;56.15;;;179.80;2252.80;;;;;;5024520;28;20008;-80
2022/12/22 09:35:09;;;;;;;;;;;179.90;2252.80;;;;;;5030555;28;20524;-81
2022/12/22 09:37:35;;;;;;;110.80;57.78;;;180.00;2252.80;;;;;;5027318;28;19909;-81
2022/12/22 09:40:00;;;;;;;;;;;204.90;2252.80;;;;;;5027858;28;20070;-82
2022/12/22 09:42:27;;;;;;;106.63;55.83;;;180.10;2252.80;;;;;;5026242;28;19911;-80
2022/12/22 09:44:52;;;;;;;112.55;59.72;;;179.80;2252.80;;;;;;5028676;28;20026;-81
2022/12/22 09:47:21;;;;;;;;;;;180.10;2252.80;;;;;;5016430;28;20033;-81
2022/12/22 09:49:47;;;;;;;128.27;60.15;;;180.10;2252.80;;;;;;5019618;28;19952;-81
2022/12/22 09:52:34;;;;;;;112.97;58.28;;;179.80;2252.80;;;;;;5027565;28;20030;-81
2022/12/22 09:55:25;;;;;;;124.85;64.10;;;179.70;2252.80;;;;;;5036606;28;20061;-81
2022/12/22 09:57:53;;;;;;;115.03;58.60;;;179.70;2252.80;;;;;;5022571;28;20053;-81
2022/12/22 10:00:23;;;;;;;120.35;60.47;;;179.70;2252.80;;;;;;5023114;28;20069;-77
2022/12/22 10:03:08;;;;;;;121.15;60.75;;;179.80;2252.80;;;;;;5023262;28;20033;-81
2022/12/22 10:06:18;;;;;;;117.30;61.63;;;179.70;2252.80;;;;;;5041592;28;20034;-80
2022/12/22 10:08:44;;;;;;;121.20;63.25;;;179.80;2252.80;;;;;;5016082;28;20060;-81
2022/12/22 10:11:15;;;;;;;;;;;179.80;2252.80;;;;;;5025663;28;20498;-81
2022/12/22 10:13:41;;;;;;;114.22;61.00;;;179.70;2252.80;;;;;;5026925;28;19913;-82
2022/12/22 10:16:22;;;;;;;114.65;60.28;;;179.60;2252.80;;;;;;4996456;28;20030;-83
2022/12/22 10:18:58;;;;;;;118.45;62.50;;;179.70;2252.80;;;;;;5030223;28;20515;-82
2022/12/22 10:21:25;;;;;;;130.18;64.25;;;179.70;2252.80;;;;;;5012886;28;20145;-79
2022/12/22 10:23:51;;;;;;;125.25;65.18;;;179.70;2252.80;;;;;;5012810;28;20528;-80
2022/12/22 10:26:22;;;;;;;138.93;67.25;;;179.80;2252.80;;;;;;5004952;28;20030;-80
2022/12/22 10:29:06;;;;;;;121.40;65.30;;;179.80;2252.80;;;;;;5019209;28;20109;-79
2022/12/22 10:31:34;;;;;;;122.10;65.70;;;179.90;2252.80;;;;;;5032261;28;20036;-79
2022/12/22 10:34:16;;;;;;;131.07;66.68;;;180.10;2252.80;;;;;;5032034;28;20041;-80
2022/12/22 10:36:47;;;;;;;137.45;69.07;;;180.10;2252.80;;;;;;5016089;28;20032;-85
2022/12/22 10:39:26;;;;;;;133.48;68.63;;;180.10;2252.80;;;;;;5015658;28;20536;-82
2022/12/22 10:41:55;;;;;;;128.43;67.85;;;180.00;2252.80;;;;;;5020156;28;20025;-84
2022/12/22 10:44:25;;;;;;;126.07;66.90;;;180.10;2252.80;;;;;;5016052;28;20109;-81
2022/12/22 10:46:57;;;;;;;125.35;66.35;;;180.10;2252.80;;;;;;5034095;28;20056;-81
2022/12/22 10:49:35;;;;;;;125.13;62.90;;;204.80;2252.80;;;;;;5034005;28;20018;-78
2022/12/22 10:52:21;;;;;;;143.75;72.53;;;180.10;2252.80;;;;;;5032306;28;20040;-81
2022/12/22 10:54:47;;;;;;;93.43;49.80;;;180.10;2252.80;;;;;;5032913;28;20052;-80
2022/12/22 10:57:13;;;;;;;;;;;204.90;2252.80;;;;;;5033039;28;20029;-80
2022/12/22 10:59:52;;;;;;;127.88;61.45;;;204.80;2252.80;;;;;;5033217;28;19931;-82
2022/12/22 11:02:21;;;;;;;126.53;57.40;;;180.10;2252.80;;;;;;5033612;28;20160;-79
2022/12/22 11:04:48;;;;;;;105.43;56.55;;;204.80;2252.80;;;;;;5032452;28;20068;-79
2022/12/22 11:07:14;;;;;;;103.03;54.00;;;204.90;2252.80;;;;;;5032283;28;20089;-80
2022/12/22 11:09:40;;;;;;;;;;;205.00;2252.80;;;;;;5027946;28;20173;-79
2022/12/22 11:12:26;;;;;;;114.70;57.38;;;205.00;2252.80;;;;;;5023204;28;19905;-79
2022/12/22 11:15:21;;;;;;;107.88;57.10;;;204.90;2252.80;;;;;;4992184;28;20175;-80
2022/12/22 11:18:07;;;;;;;127.55;64.55;;;204.80;2252.80;;;;;;5011690;28;20058;-80
2022/12/22 11:20:52;;;;;;;89.30;46.53;;;205.00;2252.80;;;;;;5017259;28;20582;-79
2022/12/22 11:23:35;;;;;;;134.88;67.43;;;205.00;2252.80;;;;;;5012345;28;20048;-79
2022/12/22 11:26:22;;;;;;;129.38;67.68;;;204.90;2252.80;;;;;;5016087;28;20054;-79
2022/12/22 11:29:25;;;;;;;93.57;51.03;;;205.00;2252.80;;;;;;5001258;28;20117;-78
2022/12/22 11:32:18;;;;;;;125.25;63.10;;;204.80;2252.80;;;;;;5022811;28;20539;-79
2022/12/22 11:35:08;;;;;;;119.47;59.78;;;204.90;2252.80;;;;;;4990311;28;20030;-88
2022/12/22 11:37:33;;;;;;;105.97;55.60;;;205.00;2252.80;;;;;;4996664;28;20023;-81
2022/12/22 11:40:17;;;;;;;;;;;205.10;2252.80;;;;;;4999627;28;20093;-78
2022/12/22 11:42:58;;;;;;;110.38;55.15;;;205.10;2252.80;;;;;;5016459;28;19995;-79
2022/12/22 11:45:58;;;;;;;116.70;59.40;;;205.10;2252.80;;;;;;5028574;28;20479;-80
2022/12/22 11:48:41;;;;;;;126.22;61.53;;;205.10;2252.80;;;;;;5008070;28;20543;-80
2022/12/22 11:51:46;;;;;;;136.68;62.65;;;205.10;2252.80;;;;;;4992335;28;20034;-80
2022/12/22 11:54:36;;;;;;;160.07;89.43;;;205.10;2252.80;;;;;;5024902;28;20046;-81
2022/12/22 11:57:21;;;;;;;136.05;67.18;;;205.10;2252.80;;;;;;5038425;28;20474;-80
2022/12/22 11:59:47;;;;;;;117.45;63.88;;;205.20;2252.80;;;;;;5052590;28;20030;-80
2022/12/22 12:02:12;;;;;;;;;;;205.20;2252.80;;;;;;5040804;28;20033;-79
2022/12/22 12:04:52;;;;;;;148.95;76.72;;;205.20;2252.80;;;;;;5025557;28;19905;-79
2022/12/22 12:07:41;;;;;;;114.57;58.15;;;205.10;2252.80;;;;;;5039061;28;20038;-82
2022/12/22 12:10:22;;;;;;;153.70;76.03;;;205.10;2252.80;;;;;;5062714;28;20033;-84
2022/12/22 12:13:30;;;;;;;127.70;62.78;;;205.00;2252.80;;;;;;5039151;28;20034;-80
2022/12/22 12:16:33;;;;;;;162.40;76.30;;;205.00;2252.80;;;;;;5028972;28;20604;-86
2022/12/22 12:19:16;;;;;;;164.60;77.45;;;205.00;2252.80;;;;;;5010836;28;20033;-85
2022/12/22 12:21:50;;;;;;;138.18;61.38;;;205.00;2252.80;;;;;;5019931;28;20034;-79
2022/12/22 12:24:58;;;;;;;115.47;58.75;;;205.10;2252.80;;;;;;5008720;28;20026;-85
2022/12/22 12:27:42;;;;;;;;;;;205.10;2252.80;;;;;;5023332;28;20495;-80
2022/12/22 12:30:17;;;;;;;115.00;59.22;;;205.00;2252.80;;;;;;5031321;28;19909;-79
2022/12/22 12:32:54;;;;;;;131.57;73.97;;;205.10;2252.80;;;;;;5025926;28;20103;-79
2022/12/22 12:35:20;;;;;;;137.13;71.82;;;205.20;2252.80;;;;;;5004594;28;20033;-81
2022/12/22 12:37:49;;;;;;;;;;;205.20;2252.80;;;;;;5009001;28;20481;-81
2022/12/22 12:40:23;;;;;;;117.88;60.47;;;205.20;2252.80;;;;;;5013823;28;19909;-81
2022/12/22 12:42:51;;;;;;;120.60;61.72;;;205.30;2252.80;;;;;;5010950;28;20116;-81
2022/12/22 12:45:42;;;;;;;113.93;62.80;;;205.30;2252.80;;;;;;5010590;28;20025;-81
2022/12/22 12:48:24;;;;;;;118.88;62.30;;;205.30;2252.80;;;;;;5008951;28;20030;-82
2022/12/22 12:50:54;;;;;;;131.65;68.65;;;205.30;2252.80;;;;;;5000476;28;20121;-82
2022/12/22 12:53:24;;;;;;;135.10;68.70;;;205.40;2252.80;;;;;;5023570;28;20490;-82
2022/12/22 12:55:52;;;;;;;122.40;64.57;;;205.60;2252.80;;;;;;5034629;28;20100;-81
2022/12/22 12:58:33;;;;;;;111.40;60.95;;;205.60;2252.80;;;;;;5031021;28;20025;-79
2022/12/22 13:01:03;;;;;;;121.40;65.32;;;205.50;2252.80;;;;;;5037379;28;20033;-79
2022/12/22 13:03:29;;;;;;;128.77;68.80;;;205.50;2252.80;;;;;;5039763;28;20060;-79
2022/12/22 13:05:58;;;;;;;;;;;205.60;2252.80;;;;;;5029324;28;20478;-84
2022/12/22 13:08:31;;;;;;;121.28;65.68;;;205.50;2252.80;;;;;;5033258;28;19911;-82
2022/12/22 13:10:56;;;;;;;127.72;65.72;;;205.50;2252.80;;;;;;5033268;28;20501;-82
2022/12/22 13:13:25;;;;;;;;;;;205.50;2252.80;;;;;;5025236;28;20030;-81
2022/12/22 13:15:59;;;;;;;112.85;61.05;;;205.50;2252.80;;;;;;5021211;28;20039;-81
2022/12/22 13:18:25;;;;;;;130.35;66.65;;;205.50;2252.80;;;;;;5020382;28;20022;-82
2022/12/22 13:20:56;;;;;;;;;;;205.50;2252.80;;;;;;5027445;28;20033;-80
2022/12/22 13:23:23;;;;;;;113.70;62.95;;;205.60;2252.80;;;;;;5028519;28;19954;-80
2022/12/22 13:25:57;;;;;;;118.82;65.63;;;205.60;2252.80;;;;;;5016690;28;20390;-81
2022/12/22 13:28:24;;;;;;;117.25;63.92;;;205.70;2252.80;;;;;;5028306;28;20029;-80
2022/12/22 13:31:13;;;;;;;129.82;68.03;;;205.60;2252.80;;;;;;5026609;28;20542;-79
2022/12/22 13:33:41;;;;;;;117.15;62.75;;;205.50;2252.80;;;;;;5027209;28;20505;-79
2022/12/22 13:36:17;;;;;;;113.60;63.60;;;205.50;2252.80;;;;;;5025825;28;20034;-79
2022/12/22 13:38:42;;;;;;;133.23;68.53;;;205.50;2252.80;;;;;;5029317;28;20554;-80
2022/12/22 13:41:16;;;;;;;;;;;205.60;2252.80;;;;;;5029061;28;20124;-79
2022/12/22 13:43:46;;;;;;;121.43;62.50;;;205.60;2252.80;;;;;;5020788;28;19911;-80
2022/12/22 13:46:12;;;;;;;120.00;66.28;;;205.60;2252.80;;;;;;5022172;28;20077;-79
2022/12/22 13:48:37;;;;;;;;;;;205.60;2252.80;;;;;;5029867;28;20033;-80
2022/12/22 13:51:07;;;;;;;113.75;62.80;;;205.60;2252.80;;;;;;5027009;28;19912;-80
2022/12/22 13:53:46;;;;;;;123.13;66.78;;;205.70;2252.80;;;;;;5024171;28;20061;-80
2022/12/22 13:56:15;;;;;;;128.13;66.53;;;205.70;2252.80;;;;;;5026009;28;20111;-79
2022/12/22 13:58:44;;;;;;;127.38;65.32;;;205.60;2252.80;;;;;;5024634;28;20064;-83
2022/12/22 14:01:09;;;;;;;119.18;63.42;;;205.60;2252.80;;;;;;5022824;28;20386;-80
2022/12/22 14:03:43;;;;;;;;;;;205.60;2252.80;;;;;;5032790;28;20038;-81
2022/12/22 14:06:28;;;;;;;111.70;57.58;;;205.60;2252.80;;;;;;5023923;28;19905;-87
2022/12/22 14:09:11;;;;;;;112.80;61.28;;;205.60;2252.80;;;;;;5041519;28;20026;-84
2022/12/22 14:11:36;;;;;;;108.55;60.47;;;205.70;2252.80;;;;;;5042050;28;20034;-80
2022/12/22 14:14:09;;;;;;;124.95;61.67;;;205.70;2252.80;;;;;;5018122;28;20049;-86
2022/12/22 14:16:45;;;;;;;119.47;63.08;;;205.70;2252.80;;;;;;5021879;28;20092;-84
2022/12/22 14:19:13;;;;;;;119.68;63.72;;;230.40;2252.80;;;;;;5026998;28;20087;-84
2022/12/22 14:21:41;;;;;;;123.32;66.30;;;205.70;2252.80;;;;;;5029681;28;20026;-84
2022/12/22 14:24:16;;;;;;;121.95;69.07;;;230.40;2252.80;;;;;;5020872;28;20030;-85
2022/12/22 14:26:42;;;;;;;131.13;68.53;;;230.40;2252.80;;;;;;5019984;28;20108;-82
2022/12/22 14:29:14;;;;;;;123.60;70.45;;;205.70;2252.80;;;;;;5021149;28;20065;-81
2022/12/22 14:31:54;;;;;;;138.50;71.63;;;230.40;2252.80;;;;;;5025572;28;20022;-84
2022/12/22 14:34:29;;;;;;;133.02;71.82;;;230.40;2252.80;;;;;;5027440;28;20033;-83
2022/12/22 14:36:56;;;;;;;115.40;65.47;;;205.70;2252.80;;;;;;5020585;28;20026;-84
2022/12/22 14:39:24;;;;;;;118.93;64.53;;;230.40;2252.80;;;;;;5023347;28;20108;-82
2022/12/22 14:41:57;;;;;;;121.43;66.15;;;230.40;2252.80;;;;;;5020876;28;20103;-83
2022/12/22 14:44:33;;;;;;;124.25;65.15;;;230.40;2252.80;;;;;;5022027;28;20029;-82
2022/12/22 14:47:10;;;;;;;123.67;65.67;;;230.40;2252.80;;;;;;5025191;28;20079;-82
2022/12/22 14:49:43;;;;;;;115.22;62.95;;;230.40;2252.80;;;;;;5038023;28;20038;-81
2022/12/22 14:52:22;;;;;;;127.65;66.22;;;230.40;2252.80;;;;;;5026229;28;20470;-81
2022/12/22 14:54:51;;;;;;;125.05;65.80;;;230.40;2252.80;;;;;;5049733;28;20061;-82
2022/12/22 14:57:27;;;;;;;133.10;70.25;;;230.40;2252.80;;;;;;5056950;28;20124;-87
2022/12/22 14:59:59;;;;;;;101.68;54.90;;;230.40;2252.80;;;;;;5021298;28;20033;-87
2022/12/22 15:02:39;;;;;;;123.47;68.03;;;205.70;2252.80;;;;;;5023364;28;20026;-80
2022/12/22 15:05:08;;;;;;;120.15;63.17;;;205.70;2252.80;;;;;;5022249;28;20018;-84
2022/12/22 15:07:46;;;;;;;120.47;65.30;;;205.70;2252.80;;;;;;5027460;28;20036;-86
2022/12/22 15:10:12;;;;;;;131.55;68.18;;;205.50;2252.80;;;;;;5019172;28;20060;-82
2022/12/22 15:12:37;;;;;;;;;;;205.50;2252.80;;;;;;5023565;28;20115;-82
2022/12/22 15:15:05;;;;;;;117.88;60.88;;;205.50;2252.80;;;;;;5056499;28;20379;-82
2022/12/22 15:17:31;;;;;;;113.93;62.38;;;205.50;2252.80;;;;;;5024328;28;20112;-85
2022/12/22 15:19:57;;;;;;;;;;;205.50;2252.80;;;;;;5029248;28;20135;-84
2022/12/22 15:22:23;;;;;;;112.22;57.50;;;205.40;2252.80;;;;;;5027731;28;19909;-79
2022/12/22 15:24:48;;;;;;;108.03;55.58;;;205.40;2252.80;;;;;;5018737;28;20128;-78
2022/12/22 15:27:14;;;;;;;;;;;205.40;2252.80;;;;;;5024502;28;20379;-83
2022/12/22 15:29:40;;;;;;;105.07;56.80;;;205.30;2252.80;;;;;;5022477;28;20251;-85
2022/12/22 15:32:10;;;;;;;;;;;205.20;2252.80;;;;;;5023379;28;20038;-80
2022/12/22 15:34:35;;;;;;;100.43;52.92;;;205.20;2252.80;;;;;;5029028;28;19917;-82
2022/12/22 15:37:01;;;;;;;;;;;205.20;2252.80;;;;;;5023945;28;20091;-81
2022/12/22 15:39:27;;;;;;;101.00;53.20;;;205.20;2252.80;;;;;;5051958;28;19909;-81
2022/12/22 15:41:53;;;;;;;;;;;205.20;2252.80;;;;;;5023809;28;20041;-81
2022/12/22 15:44:20;;;;;;;78.70;38.43;;;205.10;2252.80;;;;;;5020787;28;20370;-80
2022/12/22 15:46:56;;;;;;;97.50;49.00;;;205.10;2252.80;;;;;;5027257;28;20588;-80
2022/12/22 15:49:25;;;;;;;73.68;38.17;;;205.10;2252.80;;;;;;5021437;28;20037;-79
2022/12/22 15:51:54;;;;;;;94.93;48.65;;;205.20;2252.80;;;;;;5024383;28;20573;-80
2022/12/22 15:54:21;;;;;;;95.30;49.70;;;205.20;2252.80;;;;;;5018255;28;20053;-83
2022/12/22 15:56:50;;;;;;;91.53;45.63;;;205.20;2252.80;;;;;;5020407;28;20029;-80
2022/12/22 15:59:19;;;;;;;82.60;45.72;;;205.20;2252.80;;;;;;5019637;28;20029;-79
2022/12/22 16:01:45;;;;;;;81.50;44.83;;;205.20;2252.80;;;;;;5024595;28;20026;-85
2022/12/22 16:04:11;;;;;;;;;;;205.20;2252.80;;;;;;5028539;28;20049;-74
2022/12/22 16:06:37;;;;;;;82.63;41.17;;;205.10;2252.80;;;;;;5053093;28;19905;-77
2022/12/22 16:09:09;;;;;;;75.55;42.75;;;205.10;2252.80;;;;;;5025627;28;20491;-78
2022/12/22 16:11:36;;;;;;;81.68;43.83;;;205.00;2252.80;;;;;;5030659;28;20072;-79